Mount Darwin, Zimbabwe
Current Conditions -  °F | °C
As of 6:00 AM on Sunday 23 Nov 2014 (Local Time) from FVHA Reporting Station
Clear Clear  
Wind Chill: 64°   Ceiling: Unl
Heat Index: 64°   Visibility: 6mi
Dew Point: 52°   Wind: 10mph
Humidity: 64%   Direction: 60°ENE
Pressure: 30.24"   Gusts: NA
Location:  16.77°S, 31.58°E
Report Text: FVHA 230400Z 06009KT CAVOK 18/11 Q1024 NOSIG
Loading
Personal Weather Stations






























Interactive Weather Map New forecast layout! Learn more

10-Day Weather Forecast

Advertisements
Track Severe Weather on mobile